createdAt,value
2018-10-19T00:00:44.856Z,95967.23
2018-10-19T00:03:14.118Z,95965.86
2018-10-19T00:05:43.243Z,95963.70
2018-10-19T00:08:12.484Z,95965.80
2018-10-19T00:10:41.649Z,95962.30
2018-10-19T00:13:10.897Z,95968.96
2018-10-19T00:15:40.095Z,95973.77
2018-10-19T00:18:09.499Z,95967.33
2018-10-19T00:20:38.660Z,95967.30
2018-10-19T00:23:07.862Z,95964.84
2018-10-19T00:25:37.039Z,95968.02
2018-10-19T00:28:06.282Z,95959.66
2018-10-19T00:30:35.433Z,95963.17
2018-10-19T00:33:04.708Z,95961.25
2018-10-19T00:35:33.931Z,95961.22
2018-10-19T00:38:03.138Z,95962.26
2018-10-19T00:40:32.337Z,95953.34
2018-10-19T00:43:01.543Z,95961.89
2018-10-19T00:45:36.002Z,95957.09
2018-10-19T00:48:12.195Z,95960.22
2018-10-19T00:50:42.745Z,95959.44
2018-10-19T00:53:12.521Z,95954.76
2018-10-19T00:55:41.824Z,95963.64
2018-10-19T00:58:11.247Z,95963.83
2018-10-19T01:00:41.804Z,95967.05
2018-10-19T01:03:11.210Z,95962.97
2018-10-19T01:05:41.016Z,95962.93
2018-10-19T01:08:11.157Z,95955.98
2018-10-19T01:10:40.336Z,95953.86
2018-10-19T01:13:09.572Z,95959.25
2018-10-19T01:15:38.767Z,95955.94
2018-10-19T01:18:08.008Z,95957.55
2018-10-19T01:20:37.193Z,95954.00
2018-10-19T01:23:06.638Z,95962.59
2018-10-19T01:25:40.026Z,95959.88
2018-10-19T01:28:09.708Z,95961.52
2018-10-19T01:30:39.002Z,95966.56
2018-10-19T01:33:08.211Z,95967.04
2018-10-19T01:35:37.331Z,95962.21
2018-10-19T01:38:06.758Z,95960.02
2018-10-19T01:40:36.239Z,95962.39
2018-10-19T01:43:05.443Z,95956.44
2018-10-19T01:45:34.585Z,95965.58
2018-10-19T01:48:03.737Z,95962.09
2018-10-19T01:50:32.949Z,95958.55
2018-10-19T01:53:02.125Z,95959.11
2018-10-19T01:55:31.253Z,95962.48
2018-10-19T01:58:00.429Z,95964.05
2018-10-19T02:00:29.569Z,95958.47
2018-10-19T02:02:58.788Z,95954.94
2018-10-19T02:05:27.972Z,95960.08
2018-10-19T02:07:57.199Z,95957.66
2018-10-19T02:10:26.424Z,95953.13
2018-10-19T02:12:55.632Z,95960.59
2018-10-19T02:15:24.854Z,95957.09
2018-10-19T02:17:54.001Z,95961.11
2018-10-19T02:20:23.169Z,95964.30
2018-10-19T02:22:52.313Z,95959.17
2018-10-19T02:25:21.445Z,95962.58
2018-10-19T02:27:50.616Z,95962.09
2018-10-19T02:30:19.757Z,95965.29
2018-10-19T02:32:49.074Z,95967.36
2018-10-19T02:35:18.294Z,95968.44
2018-10-19T02:37:47.346Z,95967.62
2018-10-19T02:40:16.604Z,95957.91
2018-10-19T02:42:45.758Z,95966.15
2018-10-19T02:45:14.996Z,95963.25
2018-10-19T02:47:44.082Z,95964.34
2018-10-19T02:50:13.291Z,95959.51
2018-10-19T02:52:42.440Z,95962.14
2018-10-19T02:55:11.596Z,95957.82
2018-10-19T02:57:40.739Z,95949.80
2018-10-19T03:00:11.657Z,95955.11
2018-10-19T03:02:41.265Z,95951.09
2018-10-19T03:05:10.839Z,95955.02
2018-10-19T03:07:40.173Z,95956.70
2018-10-19T03:10:09.723Z,95958.08
2018-10-19T03:12:38.878Z,95954.28
2018-10-19T03:15:08.885Z,95961.53
2018-10-19T03:17:38.236Z,95956.48
2018-10-19T03:20:08.514Z,95957.38
2018-10-19T03:22:38.175Z,95957.75
2018-10-19T03:25:07.746Z,95958.00
2018-10-19T03:27:36.922Z,95964.39
2018-10-19T03:30:06.889Z,95966.75
2018-10-19T03:32:36.090Z,95965.62
2018-10-19T03:35:06.242Z,95964.55
2018-10-19T03:37:35.424Z,95957.86
2018-10-19T03:40:04.777Z,95966.23
2018-10-19T03:42:34.063Z,95965.97
2018-10-19T03:45:03.311Z,95965.20
2018-10-19T03:47:32.441Z,95962.59
2018-10-19T03:50:01.657Z,95966.84
2018-10-19T03:52:30.789Z,95961.91
2018-10-19T03:54:59.965Z,95965.77
2018-10-19T03:57:29.100Z,95972.65
2018-10-19T03:59:58.305Z,95970.96
2018-10-19T04:02:27.525Z,95970.20
2018-10-19T04:04:56.696Z,95971.63
2018-10-19T04:07:25.804Z,95966.44
2018-10-19T04:09:54.929Z,95972.34
2018-10-19T04:12:24.083Z,95967.58
2018-10-19T04:14:53.276Z,95964.09
2018-10-19T04:17:22.366Z,95967.05
2018-10-19T04:19:52.375Z,95974.55
2018-10-19T04:22:21.561Z,95976.35
2018-10-19T04:24:50.744Z,95976.30
2018-10-19T04:27:20.098Z,95979.27
2018-10-19T04:29:49.197Z,95980.23
2018-10-19T04:32:18.333Z,95980.19
2018-10-19T04:34:47.488Z,95981.27
2018-10-19T04:37:16.655Z,95980.70
2018-10-19T04:39:45.845Z,95978.48
2018-10-19T04:42:15.082Z,95970.99
2018-10-19T04:44:44.207Z,95974.18
2018-10-19T04:47:13.511Z,95969.92
2018-10-19T04:49:42.612Z,95972.53
2018-10-19T04:52:11.777Z,95973.30
2018-10-19T04:54:41.038Z,95969.23
2018-10-19T04:57:10.285Z,95976.99
2018-10-19T04:59:39.415Z,95980.88
2018-10-19T05:02:08.583Z,95981.28
2018-10-19T05:04:37.757Z,95981.99
2018-10-19T05:07:06.874Z,95994.44
2018-10-19T05:09:36.057Z,95993.56
2018-10-19T05:12:05.243Z,95998.01
2018-10-19T05:14:34.392Z,96000.43
2018-10-19T05:17:03.620Z,96002.45
2018-10-19T05:19:32.705Z,96012.03
2018-10-19T05:22:01.862Z,96019.66
2018-10-19T05:24:31.071Z,96018.41
2018-10-19T05:27:00.289Z,96020.43
2018-10-19T05:29:29.457Z,96019.19
2018-10-19T05:31:58.686Z,96022.87
2018-10-19T05:34:27.814Z,96025.67
2018-10-19T05:36:57.037Z,96022.34
2018-10-19T05:39:26.245Z,96027.20
2018-10-19T05:41:55.460Z,96032.83
2018-10-19T05:44:24.648Z,96038.63
2018-10-19T05:46:53.831Z,96038.69
2018-10-19T05:49:22.973Z,96041.62
2018-10-19T05:51:52.165Z,96040.59
2018-10-19T05:54:21.289Z,96039.50
2018-10-19T05:56:50.433Z,96047.53
2018-10-19T05:59:19.563Z,96052.02
2018-10-19T06:01:48.926Z,96057.48
2018-10-19T06:04:18.136Z,96057.99
2018-10-19T06:06:47.276Z,96053.87
2018-10-19T06:09:16.452Z,96058.11
2018-10-19T06:11:45.644Z,96064.66
2018-10-19T06:14:15.046Z,96064.20
2018-10-19T06:16:44.302Z,96071.27
2018-10-19T06:19:13.610Z,96074.94
2018-10-19T06:21:42.977Z,96074.78
2018-10-19T06:24:12.157Z,96071.33
2018-10-19T06:26:41.307Z,96073.05
2018-10-19T06:29:10.532Z,96071.14
2018-10-19T06:31:39.678Z,96071.33
2018-10-19T06:34:09.007Z,96070.29
2018-10-19T06:36:38.255Z,96074.23
2018-10-19T06:39:10.445Z,96077.74
2018-10-19T06:41:39.727Z,96079.70
2018-10-19T06:44:09.358Z,96078.89
2018-10-19T06:46:38.527Z,96083.84
2018-10-19T06:49:07.748Z,96085.67
2018-10-19T06:51:36.859Z,96094.25
2018-10-19T06:54:06.373Z,96089.55
2018-10-19T06:56:35.575Z,96088.16
2018-10-19T06:59:04.868Z,96090.18
2018-10-19T07:01:33.988Z,96089.94
2018-10-19T07:04:03.188Z,96100.78
2018-10-19T07:06:32.381Z,96111.27
2018-10-19T07:09:01.801Z,96106.31
2018-10-19T07:11:31.053Z,96106.20
2018-10-19T07:14:00.210Z,96112.17
2018-10-19T07:16:29.384Z,96120.28
2018-10-19T07:18:58.551Z,96121.11
2018-10-19T07:21:27.659Z,96114.27
2018-10-19T07:23:56.789Z,96117.62
2018-10-19T07:26:25.921Z,96120.95
2018-10-19T07:28:55.347Z,96123.94
2018-10-19T07:31:24.481Z,96128.74
2018-10-19T07:33:54.334Z,96123.67
2018-10-19T07:36:23.846Z,96126.07
2018-10-19T07:38:53.040Z,96124.24
2018-10-19T07:41:22.237Z,96130.73
2018-10-19T07:43:51.363Z,96130.31
2018-10-19T07:46:20.520Z,96130.30
2018-10-19T07:48:49.660Z,96142.28
2018-10-19T07:51:18.784Z,96142.76
2018-10-19T07:53:47.909Z,96138.57
2018-10-19T07:56:23.412Z,96137.98
2018-10-19T07:58:52.539Z,96131.97
2018-10-19T08:01:21.671Z,96133.95
2018-10-19T08:03:50.860Z,96139.08
2018-10-19T08:06:20.001Z,96143.50
2018-10-19T08:08:49.199Z,96140.83
2018-10-19T08:11:18.409Z,96141.88
2018-10-19T08:13:47.488Z,96142.66
2018-10-19T08:16:16.656Z,96148.25
2018-10-19T08:18:45.818Z,96148.35
2018-10-19T08:21:14.996Z,96144.94
2018-10-19T08:23:44.337Z,96143.91
2018-10-19T08:26:13.577Z,96142.38
2018-10-19T08:28:42.681Z,96145.77
2018-10-19T08:31:11.978Z,96146.02
2018-10-19T08:33:41.228Z,96144.23
2018-10-19T08:36:10.412Z,96149.15
2018-10-19T08:38:39.611Z,96152.09
2018-10-19T08:41:08.848Z,96158.36
2018-10-19T08:43:37.991Z,96155.52
2018-10-19T08:46:12.346Z,96147.85
2018-10-19T08:48:41.577Z,96153.25
2018-10-19T08:51:10.831Z,96160.04
2018-10-19T08:53:39.973Z,96155.09
2018-10-19T08:56:09.049Z,96152.98
2018-10-19T08:58:38.257Z,96164.41
2018-10-19T09:01:07.539Z,96161.84
2018-10-19T09:03:36.853Z,96165.23
2018-10-19T09:06:06.395Z,96165.69
2018-10-19T09:08:35.522Z,96166.00
2018-10-19T09:11:04.740Z,96161.22
2018-10-19T09:13:33.888Z,96166.97
2018-10-19T09:16:03.100Z,96163.58
2018-10-19T09:18:32.372Z,96166.06
2018-10-19T09:21:01.643Z,96168.19
2018-10-19T09:23:30.725Z,96166.94
2018-10-19T09:25:59.893Z,96164.27
2018-10-19T09:28:29.055Z,96168.68
2018-10-19T09:30:58.295Z,96162.25
2018-10-19T09:33:27.468Z,96162.05
2018-10-19T09:35:56.692Z,96163.81
2018-10-19T09:38:25.765Z,96163.55
2018-10-19T09:40:55.022Z,96164.38
2018-10-19T09:43:24.098Z,96162.27
2018-10-19T09:45:53.286Z,96161.75
2018-10-19T09:48:22.492Z,96156.66
2018-10-19T09:50:51.718Z,96158.29
2018-10-19T09:53:20.841Z,96157.47
2018-10-19T09:55:50.000Z,96166.51
2018-10-19T09:58:19.141Z,96159.02
2018-10-19T10:00:53.619Z,96168.66
2018-10-19T10:03:22.714Z,96168.23
2018-10-19T10:05:51.892Z,96169.44
2018-10-19T10:08:21.547Z,96172.02
2018-10-19T10:10:50.720Z,96163.50
2018-10-19T10:13:19.984Z,96171.23
2018-10-19T10:15:49.199Z,96170.27
2018-10-19T10:18:18.416Z,96166.39
2018-10-19T10:20:47.569Z,96165.34
2018-10-19T10:23:16.801Z,96155.89
2018-10-19T10:25:46.017Z,96155.84
2018-10-19T10:28:15.274Z,96153.11
2018-10-19T10:30:44.344Z,96146.63
2018-10-19T10:33:13.522Z,96147.69
2018-10-19T10:35:42.721Z,96142.19
2018-10-19T10:38:11.924Z,96138.71
2018-10-19T10:40:41.064Z,96138.16
2018-10-19T10:43:10.345Z,96138.39
2018-10-19T10:45:39.463Z,96139.75
2018-10-19T10:48:08.607Z,96138.59
2018-10-19T10:50:37.729Z,96135.08
2018-10-19T10:53:06.994Z,96133.91
2018-10-19T10:55:36.389Z,96134.72
2018-10-19T10:58:05.961Z,96139.45
2018-10-19T11:00:34.441Z,96129.03
2018-10-19T11:03:03.007Z,96129.05
2018-10-19T11:05:31.527Z,96127.25
2018-10-19T11:08:00.717Z,96128.15
2018-10-19T11:10:29.929Z,96128.87
2018-10-19T11:12:59.172Z,96122.47
2018-10-19T11:15:28.329Z,96120.39
2018-10-19T11:17:57.557Z,96120.27
2018-10-19T11:20:26.786Z,96120.11
2018-10-19T11:22:56.139Z,96121.31
2018-10-19T11:25:25.408Z,96116.84
2018-10-19T11:27:54.602Z,96116.77
2018-10-19T11:30:23.810Z,96114.95
2018-10-19T11:32:53.009Z,96108.86
2018-10-19T11:35:22.202Z,96108.72
2018-10-19T11:37:51.385Z,96105.95
2018-10-19T11:40:29.280Z,96105.55
2018-10-19T11:42:58.627Z,96098.30
2018-10-19T11:45:30.286Z,96093.90
2018-10-19T11:47:59.460Z,96099.34
2018-10-19T11:50:28.843Z,96091.19
2018-10-19T11:52:58.029Z,96091.08
2018-10-19T11:55:27.178Z,96093.68
2018-10-19T11:57:56.377Z,96085.64
2018-10-19T12:00:25.580Z,96083.27
2018-10-19T12:02:54.712Z,96083.51
2018-10-19T12:05:23.863Z,96080.95
2018-10-19T12:07:53.077Z,96083.23
2018-10-19T12:10:22.221Z,96086.11
2018-10-19T12:12:51.537Z,96079.81
2018-10-19T12:15:21.905Z,96083.00
2018-10-19T12:17:51.100Z,96078.19
2018-10-19T12:20:20.265Z,96081.81
2018-10-19T12:22:49.418Z,96074.97
2018-10-19T12:25:19.061Z,96067.05
2018-10-19T12:27:48.213Z,96070.88
2018-10-19T12:30:17.414Z,96071.55
2018-10-19T12:32:46.545Z,96069.72
2018-10-19T12:35:15.923Z,96067.15
2018-10-19T12:37:45.173Z,96067.93
2018-10-19T12:40:14.321Z,96063.45
2018-10-19T12:42:43.498Z,96063.47
2018-10-19T12:46:32.933Z,96061.50
2018-10-19T12:49:02.145Z,96063.75
2018-10-19T12:51:31.269Z,96061.88
2018-10-19T12:54:00.557Z,96061.95
2018-10-19T12:56:29.688Z,96062.22
2018-10-19T12:58:58.922Z,96060.53
2018-10-19T13:01:28.993Z,96053.86
2018-10-19T13:03:58.805Z,96051.45
2018-10-19T13:06:27.956Z,96054.71
2018-10-19T13:08:57.202Z,96053.05
2018-10-19T13:11:26.719Z,96047.73
2018-10-19T13:13:56.044Z,96050.14
2018-10-19T13:16:25.317Z,96045.45
2018-10-19T13:18:54.624Z,96057.98
2018-10-19T13:21:23.785Z,96056.28
2018-10-19T13:23:53.044Z,96061.97
2018-10-19T13:26:22.206Z,96055.08
2018-10-19T13:28:51.392Z,96053.41
2018-10-19T13:31:20.531Z,96058.41
2018-10-19T13:33:49.743Z,96055.03
2018-10-19T13:36:18.921Z,96053.83
2018-10-19T13:38:48.189Z,96054.77
2018-10-19T13:41:17.345Z,96057.05
2018-10-19T13:43:46.627Z,96050.86
2018-10-19T13:46:15.807Z,96054.88
2018-10-19T13:48:45.024Z,96055.53
2018-10-19T13:51:14.399Z,96053.83
2018-10-19T13:53:43.711Z,96052.67
2018-10-19T13:56:12.888Z,96053.06
2018-10-19T13:58:42.083Z,96048.63
2018-10-19T14:01:11.315Z,96054.22
2018-10-19T14:03:40.544Z,96048.02
2018-10-19T14:06:09.759Z,96046.89
2018-10-19T14:08:39.170Z,96044.22
2018-10-19T14:11:08.393Z,96048.48
2018-10-19T14:13:37.597Z,96042.06
2018-10-19T14:16:06.793Z,96039.19
2018-10-19T14:18:35.970Z,96036.36
2018-10-19T14:21:05.624Z,96040.14
2018-10-19T14:23:34.853Z,96031.48
2018-10-19T14:26:04.021Z,96044.22
2018-10-19T14:28:33.161Z,96043.73
2018-10-19T14:31:02.357Z,96043.34
2018-10-19T14:33:31.662Z,96044.27
2018-10-19T14:36:00.674Z,96036.77
2018-10-19T14:38:29.811Z,96037.41
2018-10-19T14:40:59.032Z,96034.44
2018-10-19T14:43:28.202Z,96045.23
2018-10-19T14:45:57.350Z,96042.32
2018-10-19T14:48:26.533Z,96040.16
2018-10-19T14:50:55.789Z,96039.50
2018-10-19T14:53:24.965Z,96041.33
2018-10-19T14:55:54.152Z,96039.86
2018-10-19T14:58:23.355Z,96049.78
2018-10-19T15:00:52.527Z,96048.02
2018-10-19T15:03:21.854Z,96051.33
2018-10-19T15:05:51.033Z,96054.14
2018-10-19T15:08:20.228Z,96048.28
2018-10-19T15:10:49.570Z,96059.02
2018-10-19T15:13:18.603Z,96058.84
2018-10-19T15:15:47.800Z,96061.16
2018-10-19T15:18:17.072Z,96061.21
2018-10-19T15:20:46.166Z,96065.81
2018-10-19T15:23:15.347Z,96068.33
2018-10-19T15:25:44.540Z,96075.13
2018-10-19T15:28:13.751Z,96078.95
2018-10-19T15:30:43.073Z,96072.72
2018-10-19T15:33:12.353Z,96074.17
2018-10-19T15:35:41.469Z,96073.14
2018-10-19T15:38:10.688Z,96070.97
2018-10-19T15:40:39.895Z,96072.67
2018-10-19T15:43:09.133Z,96075.97
2018-10-19T15:45:38.372Z,96071.93
2018-10-19T15:48:07.647Z,96073.88
2018-10-19T15:50:36.896Z,96079.55
2018-10-19T15:53:06.240Z,96083.61
2018-10-19T15:55:35.391Z,96080.14
2018-10-19T15:58:04.597Z,96084.19
2018-10-19T16:00:33.779Z,96084.52
2018-10-19T16:03:02.929Z,96089.34
2018-10-19T16:05:32.073Z,96089.06
2018-10-19T16:08:01.197Z,96091.27
2018-10-19T16:10:30.436Z,96087.50
2018-10-19T16:12:59.625Z,96094.52
2018-10-19T16:15:28.815Z,96101.25
2018-10-19T16:17:57.972Z,96095.35
2018-10-19T16:20:27.382Z,96099.92
2018-10-19T16:22:56.538Z,96101.81
2018-10-19T16:25:25.741Z,96102.64
2018-10-19T16:27:55.099Z,96098.31
2018-10-19T16:30:24.237Z,96101.28
2018-10-19T16:32:53.426Z,96100.20
2018-10-19T16:35:22.593Z,96095.64
2018-10-19T16:37:51.745Z,96096.98
2018-10-19T16:40:20.889Z,96102.91
2018-10-19T16:42:50.072Z,96107.18
2018-10-19T16:45:19.210Z,96109.88
2018-10-19T16:47:48.457Z,96111.97
2018-10-19T16:50:17.692Z,96114.11
2018-10-19T16:52:46.861Z,96115.45
2018-10-19T16:55:16.016Z,96120.01
2018-10-19T16:57:45.191Z,96126.99
2018-10-19T17:00:14.486Z,96117.05
2018-10-19T17:02:43.642Z,96126.95
2018-10-19T17:05:12.812Z,96123.45
2018-10-19T17:07:41.980Z,96132.84
2018-10-19T17:10:11.145Z,96125.03
2018-10-19T17:12:40.364Z,96128.78
2018-10-19T17:15:09.559Z,96128.77
2018-10-19T17:17:38.709Z,96131.42
2018-10-19T17:20:08.249Z,96139.77
2018-10-19T17:22:37.964Z,96138.93
2018-10-19T17:25:10.530Z,96139.75
2018-10-19T17:27:40.049Z,96146.72
2018-10-19T17:30:12.887Z,96141.87
2018-10-19T17:32:42.138Z,96143.48
2018-10-19T17:35:11.361Z,96146.68
2018-10-19T17:37:40.575Z,96150.96
2018-10-19T17:40:10.404Z,96153.10
2018-10-19T17:42:39.557Z,96157.66
2018-10-19T17:45:10.340Z,96157.38
2018-10-19T17:47:39.665Z,96158.77
2018-10-19T17:50:08.854Z,96154.47
2018-10-19T17:52:38.153Z,96157.36
2018-10-19T17:55:09.469Z,96156.02
2018-10-19T17:57:39.164Z,96161.64
2018-10-19T18:00:10.291Z,96156.53
2018-10-19T18:02:39.461Z,96160.82
2018-10-19T18:05:14.319Z,96168.08
2018-10-19T18:07:43.425Z,96166.19
2018-10-19T18:10:12.592Z,96163.75
2018-10-19T18:12:41.775Z,96160.73
2018-10-19T18:15:11.014Z,96166.91
2018-10-19T18:17:40.073Z,96164.73
2018-10-19T18:20:09.330Z,96164.42
2018-10-19T18:22:38.641Z,96165.45
2018-10-19T18:25:08.041Z,96171.62
2018-10-19T18:27:37.253Z,96175.09
2018-10-19T18:30:07.294Z,96168.09
2018-10-19T18:32:37.089Z,96171.27
2018-10-19T18:35:07.943Z,96176.08
2018-10-19T18:37:37.101Z,96174.45
2018-10-19T18:40:08.713Z,96177.66
2018-10-19T18:42:37.934Z,96171.48
2018-10-19T18:45:07.982Z,96173.03
2018-10-19T18:47:37.490Z,96175.72
2018-10-19T18:50:07.282Z,96186.69
2018-10-19T18:52:36.520Z,96186.69
2018-10-19T18:55:05.913Z,96195.73
2018-10-19T18:57:35.121Z,96198.39
2018-10-19T19:00:04.401Z,96198.09
2018-10-19T19:02:33.582Z,96201.55
2018-10-19T19:05:02.852Z,96205.80
2018-10-19T19:07:32.168Z,96208.22
2018-10-19T19:10:12.765Z,96208.45
2018-10-19T19:12:42.031Z,96207.31
2018-10-19T19:15:11.936Z,96212.37
2018-10-19T19:17:41.312Z,96209.41
2018-10-19T19:20:15.784Z,96213.92
2018-10-19T19:22:44.918Z,96216.34
2018-10-19T19:25:19.407Z,96216.56
2018-10-19T19:27:48.616Z,96212.77
2018-10-19T19:30:17.948Z,96213.52
2018-10-19T19:32:52.531Z,96209.76
2018-10-19T19:35:21.876Z,96217.14
2018-10-19T19:37:51.216Z,96216.25
2018-10-19T19:40:20.574Z,96215.47
2018-10-19T19:42:53.494Z,96222.47
2018-10-19T19:45:23.166Z,96218.97
2018-10-19T19:47:58.285Z,96224.66
2018-10-19T19:50:27.718Z,96224.07
2018-10-19T19:52:57.998Z,96223.84
2018-10-19T19:55:27.486Z,96226.75
2018-10-19T19:57:57.653Z,96222.95
2018-10-19T20:00:28.057Z,96227.23
2018-10-19T20:02:57.685Z,96224.29
2018-10-19T20:05:27.222Z,96231.52
2018-10-19T20:07:57.322Z,96233.86
2018-10-19T20:10:26.960Z,96234.34
2018-10-19T20:12:57.894Z,96241.56
2018-10-19T20:15:27.482Z,96246.62
2018-10-19T20:17:58.587Z,96242.79
2018-10-19T20:20:28.305Z,96243.61
2018-10-19T20:22:58.001Z,96246.52
2018-10-19T20:25:27.649Z,96250.23
2018-10-19T20:27:57.129Z,96254.20
2018-10-19T20:30:26.870Z,96257.41
2018-10-19T20:32:56.356Z,96253.38
2018-10-19T20:35:25.812Z,96261.90
2018-10-19T20:37:55.371Z,96258.18
2018-10-19T20:40:25.169Z,96260.00
2018-10-19T20:42:54.593Z,96261.81
2018-10-19T20:45:24.090Z,96256.97
2018-10-19T20:47:53.425Z,96259.92
2018-10-19T20:50:22.877Z,96263.88
2018-10-19T20:52:52.396Z,96271.36
2018-10-19T20:55:21.673Z,96270.24
2018-10-19T20:57:51.093Z,96279.58
2018-10-19T21:00:20.569Z,96279.78
2018-10-19T21:02:49.955Z,96275.45
2018-10-19T21:05:19.336Z,96283.28
2018-10-19T21:07:49.136Z,96285.92
2018-10-19T21:10:18.609Z,96292.00
2018-10-19T21:12:47.974Z,96294.94
2018-10-19T21:15:17.378Z,96294.16
2018-10-19T21:17:46.863Z,96294.89
2018-10-19T21:21:19.196Z,96294.63
2018-10-19T21:23:48.576Z,96301.80
2018-10-19T21:26:17.981Z,96295.03
2018-10-19T21:28:47.636Z,96300.56
2018-10-19T21:31:17.015Z,96300.81
2018-10-19T21:33:46.398Z,96297.57
2018-10-19T21:36:15.903Z,96298.86
2018-10-19T21:38:45.393Z,96301.27
2018-10-19T21:41:14.842Z,96312.20
2018-10-19T21:43:44.073Z,96316.98
2018-10-19T21:46:13.423Z,96319.09
2018-10-19T21:48:42.785Z,96321.20
2018-10-19T21:51:12.135Z,96316.11
2018-10-19T21:53:41.505Z,96320.58
2018-10-19T21:56:10.907Z,96320.94
2018-10-19T21:58:40.265Z,96320.77
2018-10-19T22:01:09.578Z,96328.20
2018-10-19T22:03:38.916Z,96326.64
2018-10-19T22:06:08.291Z,96323.09
2018-10-19T22:08:37.730Z,96320.67
2018-10-19T22:11:07.089Z,96321.44
2018-10-19T22:13:36.444Z,96319.48
2018-10-19T22:16:06.592Z,96327.26
2018-10-19T22:21:32.971Z,96322.98
2018-10-19T22:24:02.160Z,96327.51
2018-10-19T22:26:31.466Z,96330.08
2018-10-19T22:29:00.645Z,96333.77
2018-10-19T22:31:29.835Z,96334.29
2018-10-19T22:33:59.049Z,96334.23
2018-10-19T22:36:28.241Z,96333.66
2018-10-19T22:38:57.465Z,96338.45
2018-10-19T22:41:27.026Z,96338.75
2018-10-19T22:43:56.200Z,96342.65
2018-10-19T22:46:25.415Z,96338.37
2018-10-19T22:48:54.740Z,96342.84
2018-10-19T22:51:23.891Z,96342.84
2018-10-19T22:53:53.073Z,96343.14
2018-10-19T22:56:22.311Z,96348.14
2018-10-19T22:58:51.483Z,96345.98
2018-10-19T23:01:20.741Z,96346.72
2018-10-19T23:03:50.537Z,96346.48
2018-10-19T23:06:19.713Z,96345.41
2018-10-19T23:08:48.944Z,96349.67
2018-10-19T23:11:18.235Z,96348.84
2018-10-19T23:13:47.393Z,96346.17
2018-10-19T23:16:16.605Z,96349.40
2018-10-19T23:18:45.858Z,96353.92
2018-10-19T23:21:15.033Z,96350.43
2018-10-19T23:23:44.241Z,96354.97
2018-10-19T23:26:13.403Z,96357.75
2018-10-19T23:28:42.565Z,96344.45
2018-10-19T23:31:11.787Z,96359.33
2018-10-19T23:33:40.929Z,96352.91
2018-10-19T23:36:10.119Z,96356.98
2018-10-19T23:38:39.265Z,96355.95
2018-10-19T23:41:08.434Z,96360.48
2018-10-19T23:43:37.629Z,96354.61
2018-10-19T23:46:07.053Z,96354.31
2018-10-19T23:48:36.210Z,96341.39
2018-10-19T23:51:05.662Z,96351.33
2018-10-19T23:53:34.868Z,96351.58
2018-10-19T23:56:04.001Z,96354.97
2018-10-19T23:58:33.189Z,96356.03
